Weather at Chandler Municipal Airport

Public forecast

Using degrees Fahrenheit for public forecast. Weather courtesy of forecast.io.

Current aviation weather report (METAR) for Chandler Municipal Airport

Report is more than 2 hours old.

2024/06/19 03:47 (retrieved 3 hours ago)

KCHD 190347Z 24006KT 10SM CLR 35/05 A2965 RMK LAST

Closest aviation forecast (TAF) to Chandler Municipal Airport

Closest forecast is Phoenix–Mesa Gateway Airport, 8.2 nm (15.1 km) ENE.

2024/06/19 06:45 Ammendment (retrieved 23 minutes ago)

TAF AMD KIWA 190541Z 1906/2006 26008KT P6SM SKC FM190800 12008KT P6SM SKC FM191700 16005KT P6SM SKC FM192100 23008KT P6SM SKC AMD LTD TO CLD VIS AND WIND TIL 191200